Time;durP1;ratioP1;P1;durP2;ratioP2;P2;SDS_P1;SDS_P2;PMS_P1;PMS_P2;Temp;Humidity;BMP_temperature;BMP_pressure;BME280_temperature;BME280_humidity;BME280_pressure;Samples;Min_cycle;Max_cycle;Signal;HPM_P1;HPM_P2
2022/09/26 00:01:10;;;;;;;1.03;0.87;;;;;;;15.61;49.33;98935.56;5069926;28;20199;-61
2022/09/26 00:03:37;;;;;;;1.17;0.90;;;;;;;15.58;49.87;98925.56;5069890;28;20241;-61
2022/09/26 00:06:08;;;;;;;0.93;0.80;;;;;;;15.55;49.42;98931.00;5069857;28;20594;-61
2022/09/26 00:08:36;;;;;;;1.03;0.80;;;;;;;15.53;49.37;98926.94;5070034;28;20216;-61
2022/09/26 00:11:07;;;;;;;0.70;0.70;;;;;;;15.52;49.36;98926.16;5069896;28;20204;-62
2022/09/26 00:13:37;;;;;;;1.53;0.90;;;;;;;15.48;49.86;98917.09;5069688;28;20335;-61
2022/09/26 00:16:05;;;;;;;1.20;1.10;;;;;;;15.42;49.73;98915.09;5069914;28;20191;-61
2022/09/26 00:18:33;;;;;;;1.53;1.07;;;;;;;15.40;50.05;98917.81;5069421;28;20225;-61
2022/09/26 00:21:04;;;;;;;1.13;1.00;;;;;;;15.42;50.97;98915.09;5069534;28;20698;-62
2022/09/26 00:23:32;;;;;;;0.73;0.70;;;;;;;15.39;51.12;98917.97;5069929;28;20215;-62
2022/09/26 00:25:59;;;;;;;2.10;1.00;;;;;;;15.33;50.56;98918.53;5069500;28;20643;-61
2022/09/26 00:28:27;;;;;;;0.60;0.60;;;;;;;15.35;50.54;98919.22;5069385;28;20234;-61
2022/09/26 00:30:55;;;;;;;1.07;0.90;;;;;;;15.34;51.03;98917.59;5069550;28;20236;-61
2022/09/26 00:33:22;;;;;;;0.87;0.83;;;;;;;15.34;51.59;98902.94;5069573;28;20369;-61
2022/09/26 00:35:51;;;;;;;1.30;1.20;;;;;;;15.31;51.91;98899.84;5069418;28;20208;-61
2022/09/26 00:38:18;;;;;;;0.70;0.70;;;;;;;15.26;51.38;98904.63;5069155;28;20284;-61
2022/09/26 00:40:47;;;;;;;1.00;0.90;;;;;;;15.23;50.92;98889.47;5069488;28;20203;-61
2022/09/26 00:43:31;;;;;;;1.27;1.00;;;;;;;15.25;51.41;98903.00;5069175;28;20215;-61
2022/09/26 00:46:02;;;;;;;0.73;0.70;;;;;;;15.25;51.37;98897.88;5069290;28;20570;-61
2022/09/26 00:48:30;;;;;;;2.50;1.10;;;;;;;15.26;51.89;98896.91;5068555;28;20726;-61
2022/09/26 00:50:57;;;;;;;0.63;0.63;;;;;;;15.27;51.91;98895.94;5069104;28;20389;-61
2022/09/26 00:53:31;;;;;;;0.80;0.73;;;;;;;15.23;51.96;98899.78;5069099;28;20237;-61
2022/09/26 00:56:04;;;;;;;0.77;0.77;;;;;;;15.20;51.76;98894.91;5069312;28;20192;-61
2022/09/26 00:58:35;;;;;;;0.83;0.80;;;;;;;15.21;51.54;98897.31;5069550;28;20214;-61
2022/09/26 01:01:02;;;;;;;1.97;1.27;;;;;;;15.24;52.60;98898.81;5069205;28;20209;-61
2022/09/26 01:03:32;;;;;;;1.20;1.10;;;;;;;15.24;52.70;98881.59;5069074;28;20225;-61
2022/09/26 01:06:00;;;;;;;0.80;0.80;;;;;;;15.23;51.92;98885.13;5068940;28;20202;-61
2022/09/26 01:08:33;;;;;;;1.60;1.20;;;;;;;15.24;51.91;98880.78;5068899;28;20214;-61
2022/09/26 01:11:02;;;;;;;1.00;0.90;;;;;;;15.17;52.01;98877.97;5069287;28;20226;-61
2022/09/26 01:13:30;;;;;;;1.20;1.07;;;;;;;15.15;52.10;98878.13;5069070;28;20229;-61
2022/09/26 01:15:57;;;;;;;1.40;1.00;;;;;;;15.11;51.50;98866.50;5069017;28;20194;-61
2022/09/26 01:18:24;;;;;;;2.40;1.03;;;;;;;15.11;51.26;98876.78;5069019;28;20253;-61
2022/09/26 01:20:59;;;;;;;1.00;0.90;;;;;;;15.06;51.81;98881.56;5069102;28;20204;-61
2022/09/26 01:23:53;;;;;;;1.70;1.07;;;;;;;15.05;52.26;98882.53;5069146;28;20214;-61
2022/09/26 01:26:49;;;;;;;2.00;1.40;;;;;;;15.00;53.81;98887.28;5068945;28;20199;-61
2022/09/26 01:29:31;;;;;;;1.30;1.17;;;;;;;15.03;53.80;98891.34;5068738;28;20710;-61
2022/09/26 01:35:06;;;;;;;1.90;1.27;;;;;;;14.97;53.57;98897.88;5069132;28;20409;-61
2022/09/26 01:37:43;;;;;;;2.30;1.20;;;;;;;14.95;53.45;98897.19;5068859;28;20218;-61
2022/09/26 01:40:20;;;;;;;3.13;1.30;;;;;;;14.89;53.18;98893.47;5068932;28;20202;-61
2022/09/26 01:43:02;;;;;;;2.93;1.70;;;;;;;14.84;53.53;98899.97;5068773;28;20728;-61
2022/09/26 01:45:39;;;;;;;1.13;1.00;;;;;;;14.89;54.38;98897.78;5069025;28;20194;-61
2022/09/26 01:48:15;;;;;;;2.10;1.20;;;;;;;14.83;53.89;98893.19;5069094;28;20237;-61
2022/09/26 01:50:47;;;;;;;0.83;0.83;;;;;;;14.78;55.21;98893.63;5068637;28;20230;-61
2022/09/26 01:53:18;;;;;;;1.10;1.00;;;;;;;14.78;55.27;98895.41;5068736;28;20618;-61
2022/09/26 01:55:52;;;;;;;1.40;1.17;;;;;;;14.84;54.82;98894.84;5069020;28;20190;-61
2022/09/26 01:58:24;;;;;;;1.30;1.20;;;;;;;14.85;54.81;98886.16;5068863;28;20249;-61
2022/09/26 02:00:52;;;;;;;1.90;1.30;;;;;;;14.84;56.08;98887.91;5070867;28;20203;-61
2022/09/26 02:03:26;;;;;;;1.10;1.00;;;;;;;14.86;55.74;98880.03;5071892;28;20229;-61
2022/09/26 02:05:57;;;;;;;1.63;1.27;;;;;;;14.89;56.34;98877.19;5072162;28;20925;-61
2022/09/26 02:08:27;;;;;;;1.27;1.00;;;;;;;14.91;55.38;98875.28;5071992;28;20218;-61
2022/09/26 02:11:00;;;;;;;1.37;0.97;;;;;;;14.91;56.41;98870.94;5072007;28;20734;-61
2022/09/26 02:13:33;;;;;;;1.20;1.10;;;;;;;14.88;56.40;98860.13;5071933;28;20695;-61
2022/09/26 02:16:05;;;;;;;1.47;1.17;;;;;;;14.81;57.16;98861.66;5072017;28;20583;-61
2022/09/26 02:18:38;;;;;;;1.70;1.10;;;;;;;14.76;57.20;98867.22;5071979;28;20214;-61
2022/09/26 02:21:12;;;;;;;1.50;1.10;;;;;;;14.74;56.64;98866.56;5072141;28;20199;-61
2022/09/26 02:23:39;;;;;;;1.13;0.87;;;;;;;14.69;57.43;98863.63;5071703;28;20245;-61
2022/09/26 02:26:06;;;;;;;0.80;0.80;;;;;;;14.64;57.87;98865.81;5071740;28;20194;-61
2022/09/26 02:28:33;;;;;;;1.90;1.40;;;;;;;14.61;57.03;98869.47;5071861;28;20225;-61
2022/09/26 02:31:02;;;;;;;1.13;1.03;;;;;;;14.59;57.22;98865.41;5071715;28;20312;-61
2022/09/26 02:33:30;;;;;;;0.73;0.73;;;;;;;14.54;56.78;98863.25;5071394;28;20233;-61
2022/09/26 02:35:58;;;;;;;1.73;1.17;;;;;;;14.52;58.10;98865.16;5071588;28;20250;-61
2022/09/26 02:38:27;;;;;;;1.10;1.00;;;;;;;14.47;58.75;98854.47;5071308;28;20395;-61
2022/09/26 02:41:01;;;;;;;0.90;0.80;;;;;;;14.46;58.78;98850.28;5071497;28;20209;-61
2022/09/26 02:43:41;;;;;;;1.50;1.33;;;;;;;14.45;58.66;98858.91;5071476;28;20611;-61
2022/09/26 02:46:25;;;;;;;1.57;1.20;;;;;;;14.45;59.22;98858.91;5071332;28;20202;-61
2022/09/26 02:49:04;;;;;;;1.00;0.80;;;;;;;14.43;59.17;98858.28;5071442;28;20257;-61
2022/09/26 02:51:53;;;;;;;1.60;1.00;;;;;;;14.37;60.38;98856.25;5071162;28;20627;-61
2022/09/26 02:54:25;;;;;;;1.27;1.07;;;;;;;14.38;59.78;98857.88;5071107;28;20221;-61
2022/09/26 02:57:10;;;;;;;1.00;0.90;;;;;;;14.32;60.10;98855.88;5071215;28;20211;-61
2022/09/26 02:59:49;;;;;;;1.10;0.90;;;;;;;14.26;60.25;98862.38;5071441;28;20241;-61
2022/09/26 03:02:20;;;;;;;1.30;1.10;;;;;;;14.23;60.63;98855.75;5070900;28;20456;-61
2022/09/26 03:04:51;;;;;;;1.20;1.10;;;;;;;14.27;60.71;98851.94;5071481;28;20198;-61
2022/09/26 03:07:27;;;;;;;1.40;1.00;;;;;;;14.26;61.25;98847.75;5070754;28;20201;-61
2022/09/26 03:09:57;;;;;;;0.83;0.83;;;;;;;14.25;60.72;98841.00;5071025;28;20237;-61
2022/09/26 03:12:26;;;;;;;1.00;0.90;;;;;;;14.24;60.85;98841.94;5069726;28;20396;-61
2022/09/26 03:14:54;;;;;;;1.50;1.07;;;;;;;14.24;61.19;98841.13;5070959;28;20209;-61
2022/09/26 03:17:24;;;;;;;0.90;0.90;;;;;;;14.25;61.53;98838.44;5070684;28;20231;-61
2022/09/26 03:19:57;;;;;;;1.33;0.87;;;;;;;14.20;61.23;98838.03;5071086;28;20209;-61
2022/09/26 03:22:26;;;;;;;1.63;1.23;;;;;;;14.18;60.86;98834.78;5070543;28;20778;-61
2022/09/26 03:24:53;;;;;;;1.00;0.90;;;;;;;14.14;61.37;98828.31;5070872;28;20205;-61
2022/09/26 03:27:20;;;;;;;0.70;0.70;;;;;;;14.15;61.08;98832.50;5070348;28;20220;-61
2022/09/26 03:29:47;;;;;;;0.93;0.83;;;;;;;14.17;61.89;98840.09;5070453;28;20198;-61
2022/09/26 03:32:14;;;;;;;1.40;1.30;;;;;;;14.12;62.20;98832.78;5070534;28;20214;-60
2022/09/26 03:34:41;;;;;;;1.00;0.80;;;;;;;14.12;62.52;98826.81;5070246;28;20589;-61
2022/09/26 03:37:08;;;;;;;1.37;0.97;;;;;;;14.14;61.63;98825.75;5070201;28;20209;-61
2022/09/26 03:39:38;;;;;;;1.00;0.90;;;;;;;14.13;61.04;98824.09;5070257;28;20201;-61
2022/09/26 03:42:05;;;;;;;1.50;1.00;;;;;;;14.11;62.31;98810.59;5070303;28;20209;-61
2022/09/26 03:44:32;;;;;;;0.83;0.83;;;;;;;14.10;62.61;98808.16;5070454;28;20211;-61
2022/09/26 03:46:59;;;;;;;1.70;1.10;;;;;;;14.07;62.25;98811.81;5070078;28;20216;-61
2022/09/26 03:49:26;;;;;;;0.80;0.80;;;;;;;14.06;62.15;98807.63;5070337;28;20197;-61
2022/09/26 03:51:53;;;;;;;1.27;1.03;;;;;;;14.02;61.99;98811.41;5069908;28;20230;-61
2022/09/26 03:54:19;;;;;;;1.20;1.10;;;;;;;14.03;62.19;98801.00;5070092;28;20217;-61
2022/09/26 03:56:48;;;;;;;1.40;1.30;;;;;;;14.06;62.26;98805.06;5069788;28;20205;-61
2022/09/26 03:59:15;;;;;;;2.10;1.30;;;;;;;14.06;62.45;98807.63;5070136;28;20604;-61
2022/09/26 04:01:42;;;;;;;1.10;1.00;;;;;;;14.09;61.97;98807.34;5069784;28;20737;-61
2022/09/26 04:04:08;;;;;;;1.77;0.90;;;;;;;14.08;61.80;98808.31;5069701;28;20214;-61
2022/09/26 04:06:36;;;;;;;0.90;0.90;;;;;;;14.10;62.47;98808.97;5069806;28;20212;-61
2022/09/26 04:09:04;;;;;;;1.80;1.43;;;;;;;14.14;61.67;98809.50;5069716;28;20223;-61
2022/09/26 04:11:30;;;;;;;0.93;0.83;;;;;;;14.22;62.28;98812.16;5069466;28;20762;-61
2022/09/26 04:13:59;;;;;;;0.80;0.73;;;;;;;14.26;62.40;98811.75;5069794;28;20217;-61
2022/09/26 04:16:25;;;;;;;1.50;1.10;;;;;;;14.30;63.06;98808.91;5069543;28;20194;-61
2022/09/26 04:18:56;;;;;;;1.00;0.97;;;;;;;14.34;62.28;98807.66;5069599;28;20287;-61
2022/09/26 04:21:23;;;;;;;0.80;0.70;;;;;;;14.40;62.62;98817.41;5069617;28;20196;-61
2022/09/26 04:23:50;;;;;;;1.07;0.90;;;;;;;14.49;62.73;98821.69;5069758;28;20741;-61
2022/09/26 04:26:19;;;;;;;1.00;0.90;;;;;;;14.53;62.34;98817.91;5069421;28;20204;-61
2022/09/26 04:28:47;;;;;;;1.47;1.20;;;;;;;14.61;62.62;98818.00;5069556;28;20228;-61
2022/09/26 04:31:15;;;;;;;1.10;1.00;;;;;;;14.72;62.24;98822.16;5069328;28;20236;-61
2022/09/26 04:33:42;;;;;;;1.13;0.90;;;;;;;14.82;62.33;98829.81;5069206;28;20601;-61
2022/09/26 04:36:12;;;;;;;0.87;0.67;;;;;;;14.88;62.78;98818.94;5069638;28;20515;-61
2022/09/26 04:38:39;;;;;;;1.30;1.10;;;;;;;14.86;62.53;98818.25;5069056;28;20225;-61
2022/09/26 04:41:08;;;;;;;3.70;0.90;;;;;;;14.87;63.13;98812.19;5069269;28;20203;-61
2022/09/26 04:43:35;;;;;;;0.83;0.80;;;;;;;14.99;62.49;98818.75;5069194;28;20623;-61
2022/09/26 04:46:07;;;;;;;1.00;0.90;;;;;;;15.01;62.62;98824.56;5069396;28;20213;-61
2022/09/26 04:48:35;;;;;;;1.07;0.97;;;;;;;15.07;62.16;98818.03;5069369;28;20355;-61
2022/09/26 04:51:05;;;;;;;1.23;0.70;;;;;;;15.12;62.92;98819.16;5069618;28;20227;-61
2022/09/26 04:53:32;;;;;;;1.47;1.00;;;;;;;15.18;61.93;98812.63;5069361;28;20245;-61
2022/09/26 04:55:59;;;;;;;1.30;1.20;;;;;;;15.33;61.03;98815.50;5069554;28;20202;-61
2022/09/26 04:58:26;;;;;;;1.33;1.03;;;;;;;15.44;60.54;98823.00;5069133;28;20223;-61
2022/09/26 05:00:53;;;;;;;0.97;0.90;;;;;;;15.52;59.52;98830.81;5069176;28;20230;-61
2022/09/26 05:03:20;;;;;;;1.50;1.17;;;;;;;15.53;60.19;98837.59;5069146;28;20223;-61
2022/09/26 05:05:49;;;;;;;1.47;1.00;;;;;;;15.59;61.76;98836.16;5069090;28;20670;-61
2022/09/26 05:08:17;;;;;;;1.20;1.00;;;;;;;15.62;60.37;98838.47;5069271;28;20592;-61
2022/09/26 05:10:45;;;;;;;1.07;0.97;;;;;;;15.67;59.25;98840.59;5069052;28;20233;-61
2022/09/26 05:13:12;;;;;;;0.80;0.80;;;;;;;15.73;60.38;98840.00;5068953;28;20732;-61
2022/09/26 05:15:40;;;;;;;1.37;1.10;;;;;;;15.74;61.27;98836.50;5069090;28;20211;-61
2022/09/26 05:18:10;;;;;;;0.93;0.93;;;;;;;15.76;60.59;98834.56;5068724;28;20708;-61
2022/09/26 05:20:38;;;;;;;1.40;0.90;;;;;;;15.86;59.88;98835.28;5069059;28;20616;-61
2022/09/26 05:23:07;;;;;;;1.23;1.10;;;;;;;15.93;59.64;98836.28;5069207;28;20225;-61
2022/09/26 05:28:23;;;;;;;1.90;1.10;;;;;;;16.07;60.79;98822.84;5068879;28;20233;-61
2022/09/26 05:30:50;;;;;;;1.40;1.07;;;;;;;16.12;60.50;98834.50;5068778;28;20461;-61
2022/09/26 05:33:18;;;;;;;1.20;1.10;;;;;;;16.16;61.12;98825.47;5068811;28;20211;-61
2022/09/26 05:35:45;;;;;;;1.10;1.00;;;;;;;16.16;60.03;98820.31;5071077;28;20199;-61
2022/09/26 05:38:13;;;;;;;1.73;1.20;;;;;;;16.19;59.64;98812.28;5072425;28;20224;-61
2022/09/26 05:40:57;;;;;;;1.27;1.00;;;;;;;16.29;59.18;98816.38;5072610;28;20202;-61
2022/09/26 05:43:26;;;;;;;0.60;0.60;;;;;;;16.37;60.60;98825.91;5072335;28;20253;-61
2022/09/26 05:45:57;;;;;;;1.50;1.00;;;;;;;16.29;58.68;98825.88;5072779;28;20199;-61
2022/09/26 05:48:25;;;;;;;1.40;1.23;;;;;;;16.45;59.43;98831.09;5072372;28;20219;-61
2022/09/26 05:50:52;;;;;;;0.77;0.77;;;;;;;16.70;60.34;98844.13;5072301;28;20284;-61
2022/09/26 05:53:21;;;;;;;1.30;1.20;;;;;;;16.81;58.77;98825.78;5072171;28;20234;-61
2022/09/26 05:55:49;;;;;;;1.20;0.87;;;;;;;16.98;59.29;98827.44;5072353;28;20662;-61
2022/09/26 05:58:17;;;;;;;1.67;0.90;;;;;;;17.10;57.51;98834.88;5072483;28;20253;-62
2022/09/26 06:00:46;;;;;;;1.20;1.10;;;;;;;17.11;58.42;98831.34;5072322;28;20213;-62
2022/09/26 06:03:13;;;;;;;0.93;0.90;;;;;;;17.15;57.22;98824.88;5072149;28;20220;-62
2022/09/26 06:05:40;;;;;;;1.00;0.90;;;;;;;17.20;57.55;98827.81;5072209;28;20218;-62
2022/09/26 06:08:08;;;;;;;1.07;0.97;;;;;;;17.34;59.10;98831.56;5071891;28;20298;-62
2022/09/26 06:10:37;;;;;;;1.47;1.20;;;;;;;17.47;56.10;98826.69;5072110;28;20218;-63
2022/09/26 06:13:04;;;;;;;1.00;0.90;;;;;;;17.63;55.94;98818.16;5072034;28;20280;-62
2022/09/26 06:15:31;;;;;;;2.03;1.30;;;;;;;17.90;54.26;98826.53;5072048;28;20213;-62
2022/09/26 06:18:00;;;;;;;0.83;0.80;;;;;;;18.13;54.38;98840.41;5072162;28;20224;-62
2022/09/26 06:20:27;;;;;;;1.57;1.37;;;;;;;18.29;54.66;98837.75;5072219;28;20201;-62
2022/09/26 06:22:54;;;;;;;0.50;0.50;;;;;;;18.32;53.18;98834.03;5071641;28;20715;-62
2022/09/26 06:25:21;;;;;;;2.13;1.40;;;;;;;18.26;51.97;98822.56;5071844;28;20205;-62
2022/09/26 06:27:54;;;;;;;1.33;1.10;;;;;;;18.62;54.21;98822.13;5071679;28;20220;-63
2022/09/26 06:30:22;;;;;;;2.70;1.10;;;;;;;19.01;54.45;98821.28;5071755;28;20203;-63
2022/09/26 06:32:49;;;;;;;1.27;1.17;;;;;;;19.19;52.86;98824.41;5071563;28;20329;-64
2022/09/26 06:35:16;;;;;;;2.27;1.30;;;;;;;19.30;53.26;98825.00;5071473;28;20695;-63
2022/09/26 06:37:43;;;;;;;1.03;1.00;;;;;;;19.18;51.95;98822.81;5071538;28;20218;-63
2022/09/26 06:40:10;;;;;;;1.10;1.00;;;;;;;19.30;52.83;98830.19;5071564;28;20228;-62
2022/09/26 06:42:37;;;;;;;0.80;0.80;;;;;;;19.13;51.25;98830.28;5071438;28;20223;-63
2022/09/26 06:45:08;;;;;;;1.17;1.03;;;;;;;19.10;53.94;98835.81;5071545;28;20195;-62
2022/09/26 06:47:35;;;;;;;1.13;1.03;;;;;;;19.15;53.09;98838.69;5069999;28;20225;-62
2022/09/26 06:50:03;;;;;;;1.23;1.00;;;;;;;19.11;51.91;98842.63;5071615;28;20652;-62
2022/09/26 06:52:32;;;;;;;2.00;1.30;;;;;;;19.11;51.89;98829.66;5071220;28;20252;-62
2022/09/26 06:54:59;;;;;;;2.57;1.70;;;;;;;19.14;52.36;98821.53;5071592;28;20213;-62
2022/09/26 06:57:26;;;;;;;1.30;1.20;;;;;;;19.19;51.50;98819.22;5071140;28;20306;-62
2022/09/26 06:59:53;;;;;;;1.83;1.20;;;;;;;19.15;51.88;98817.16;5071222;28;20589;-62
2022/09/26 07:02:25;;;;;;;1.17;1.07;;;;;;;19.11;51.22;98814.13;5070774;28;20227;-62
2022/09/26 07:04:52;;;;;;;1.63;1.40;;;;;;;18.96;51.59;98808.03;5071165;28;20204;-62
2022/09/26 07:07:18;;;;;;;1.33;1.23;;;;;;;19.21;53.40;98812.09;5070987;28;20256;-62
2022/09/26 07:09:45;;;;;;;1.53;1.20;;;;;;;19.63;51.10;98821.19;5070939;28;20585;-62
2022/09/26 07:12:13;;;;;;;1.00;0.90;;;;;;;20.11;49.54;98818.31;5070601;28;20230;-63
2022/09/26 07:14:40;;;;;;;1.20;1.10;;;;;;;20.57;48.31;98813.75;5070873;28;20199;-63
2022/09/26 07:17:07;;;;;;;1.57;0.90;;;;;;;21.30;49.86;98834.50;5070891;28;20586;-63
2022/09/26 07:19:36;;;;;;;1.10;1.00;;;;;;;21.88;47.92;98850.81;5070819;28;20238;-63
2022/09/26 07:22:06;;;;;;;1.37;1.00;;;;;;;21.86;44.12;98839.78;5070580;28;20207;-63
2022/09/26 07:24:33;;;;;;;1.87;1.50;;;;;;;21.89;45.17;98839.41;5070591;28;20196;-63
2022/09/26 07:27:01;;;;;;;1.87;1.10;;;;;;;21.86;45.28;98833.78;5070709;28;20206;-63
2022/09/26 07:29:29;;;;;;;1.33;1.13;;;;;;;21.78;46.44;98837.31;5070963;28;20302;-63
2022/09/26 07:31:56;;;;;;;1.70;1.30;;;;;;;22.07;46.41;98827.69;5070457;28;20233;-63
2022/09/26 07:34:23;;;;;;;2.20;1.40;;;;;;;22.23;44.16;98819.63;5070233;28;20226;-63
2022/09/26 07:36:53;;;;;;;2.17;1.40;;;;;;;22.59;43.19;98816.75;5070553;28;20199;-63
2022/09/26 07:39:20;;;;;;;1.65;1.17;;;;;;;22.80;44.76;98805.41;5070095;28;20306;-63
2022/09/26 07:41:48;;;;;;;1.85;1.40;;;;;;;23.04;42.51;98808.50;5070180;28;20234;-63
2022/09/26 07:44:15;;;;;;;1.50;1.38;;;;;;;23.06;43.36;98801.28;5070160;28;20223;-63
2022/09/26 07:52:12;;;;;;;4.30;1.73;;;;;;;22.94;40.29;98815.88;5069972;28;20225;-63
2022/09/26 07:54:39;;;;;;;6.72;3.17;;;;;;;22.86;41.83;98809.03;5070158;28;20285;-63
2022/09/26 07:57:06;;;;;;;3.88;2.17;;;;;;;22.85;42.12;98811.84;5069859;28;20686;-63
2022/09/26 07:59:34;;;;;;;1.50;1.30;;;;;;;22.81;41.77;98809.63;5069884;28;20199;-63
2022/09/26 08:02:00;;;;;;;3.38;1.70;;;;;;;22.89;44.00;98807.84;5069940;28;20230;-64
2022/09/26 08:04:27;;;;;;;2.08;1.58;;;;;;;22.78;41.09;98810.03;5070188;28;20269;-63
2022/09/26 08:06:55;;;;;;;1.48;1.10;;;;;;;22.65;42.25;98807.38;5069839;28;20199;-63
2022/09/26 08:09:23;;;;;;;1.35;1.25;;;;;;;22.57;42.73;98804.94;5069826;28;20218;-63
2022/09/26 08:11:50;;;;;;;0.90;0.90;;;;;;;22.50;41.17;98804.09;5069803;28;20282;-63
2022/09/26 08:14:17;;;;;;;1.20;1.10;;;;;;;22.52;39.09;98802.91;5069807;28;20222;-64
2022/09/26 08:16:44;;;;;;;1.10;0.98;;;;;;;22.58;41.64;98803.94;5069481;28;20210;-63
2022/09/26 08:19:16;;;;;;;1.35;1.10;;;;;;;22.53;40.90;98804.50;5069677;28;20223;-64
2022/09/26 08:21:43;;;;;;;1.13;0.90;;;;;;;22.48;40.84;98790.47;5069613;28;20205;-64
2022/09/26 08:24:10;;;;;;;1.50;1.20;;;;;;;22.38;41.38;98786.44;5069489;28;20808;-64
2022/09/26 08:26:39;;;;;;;1.40;1.10;;;;;;;22.63;42.52;98788.53;5069858;28;20234;-64
2022/09/26 08:29:10;;;;;;;1.73;1.27;;;;;;;22.94;42.57;98779.38;5069465;28;20227;-64
2022/09/26 08:31:37;;;;;;;1.52;1.30;;;;;;;23.15;42.81;98774.00;5069427;28;20255;-64
2022/09/26 08:34:04;;;;;;;1.23;0.93;;;;;;;23.37;44.04;98772.00;5069592;28;20215;-64
2022/09/26 08:36:31;;;;;;;1.30;1.13;;;;;;;23.53;43.67;98762.16;5069383;28;20289;-64
2022/09/26 08:38:58;;;;;;;1.20;1.10;;;;;;;23.78;40.22;98757.94;5069296;28;20211;-64
2022/09/26 08:41:43;;;;;;;1.45;1.30;;;;;;;23.87;42.10;98748.09;5069558;28;20203;-63
2022/09/26 08:44:28;;;;;;;1.52;1.40;;;;;;;23.89;41.55;98741.66;5069340;28;20699;-64
2022/09/26 08:47:00;;;;;;;1.10;1.00;;;;;;;24.03;39.39;98755.47;5069528;28;20194;-64
2022/09/26 08:49:47;;;;;;;1.30;1.20;;;;;;;24.09;40.89;98757.25;5069258;28;20259;-63
2022/09/26 08:52:27;;;;;;;1.27;1.17;;;;;;;24.05;40.02;98750.84;5069428;28;20230;-64
2022/09/26 08:54:56;;;;;;;1.25;1.15;;;;;;;24.06;42.89;98746.44;5069321;28;20210;-64
2022/09/26 08:57:32;;;;;;;1.67;1.20;;;;;;;24.04;41.14;98744.00;5069043;28;20218;-64
2022/09/26 09:00:07;;;;;;;1.83;1.45;;;;;;;24.23;43.92;98736.31;5069400;28;20297;-64
2022/09/26 09:02:40;;;;;;;1.58;1.40;;;;;;;24.39;41.71;98738.44;5069141;28;20312;-64
2022/09/26 09:05:12;;;;;;;1.92;1.33;;;;;;;24.16;39.18;98726.69;5069259;28;20199;-64
2022/09/26 09:07:39;;;;;;;2.25;1.30;;;;;;;24.25;39.25;98731.69;5069119;28;20210;-64
2022/09/26 09:10:11;;;;;;;1.67;1.42;;;;;;;24.13;40.90;98737.53;5070357;28;20813;-64
2022/09/26 09:12:53;;;;;;;1.73;1.10;;;;;;;24.16;40.85;98742.34;5072995;28;20249;-64
2022/09/26 09:15:35;;;;;;;1.35;1.25;;;;;;;24.00;39.94;98750.66;5073203;28;20674;-64
2022/09/26 09:18:16;;;;;;;1.63;1.20;;;;;;;23.87;40.08;98748.88;5073125;28;20218;-64
2022/09/26 09:20:55;;;;;;;1.33;1.10;;;;;;;24.04;43.66;98744.00;5073083;28;20209;-64
2022/09/26 09:23:37;;;;;;;2.10;1.10;;;;;;;24.12;41.96;98743.00;5073065;28;20222;-64
2022/09/26 09:26:11;;;;;;;1.20;1.08;;;;;;;24.42;39.88;98730.19;5072973;28;20621;-64
2022/09/26 09:28:56;;;;;;;2.10;1.60;;;;;;;24.73;39.18;98726.03;5072931;28;20223;-64
2022/09/26 09:31:25;;;;;;;1.10;1.00;;;;;;;25.17;39.72;98727.75;5072820;28;20199;-64
2022/09/26 09:33:59;;;;;;;3.30;1.17;;;;;;;25.29;38.89;98727.84;5073076;28;20696;-64
2022/09/26 09:36:28;;;;;;;1.13;0.98;;;;;;;25.43;40.40;98726.72;5072634;28;20241;-64
2022/09/26 09:39:02;;;;;;;1.30;1.17;;;;;;;25.60;36.15;98721.72;5073037;28;20753;-64
2022/09/26 09:41:35;;;;;;;1.70;1.25;;;;;;;25.82;39.30;98714.25;5072527;28;20701;-64
2022/09/26 09:44:11;;;;;;;1.33;1.23;;;;;;;26.08;36.13;98720.19;5072733;28;20227;-64
2022/09/26 09:46:42;;;;;;;1.95;1.40;;;;;;;25.92;37.05;98719.78;5072376;28;20651;-64
2022/09/26 09:49:19;;;;;;;2.17;1.25;;;;;;;26.32;39.35;98724.50;5072703;28;20241;-65
2022/09/26 09:52:00;;;;;;;1.27;1.10;;;;;;;26.68;36.03;98729.94;5072451;28;20199;-64
2022/09/26 09:54:48;;;;;;;1.10;0.90;;;;;;;27.03;37.74;98719.50;5072816;28;20341;-64
2022/09/26 09:57:42;;;;;;;1.90;1.40;;;;;;;27.31;35.26;98726.72;5072195;28;20203;-64
2022/09/26 10:00:15;;;;;;;1.23;1.10;;;;;;;27.21;34.58;98711.56;5072384;28;20194;-64
2022/09/26 10:02:50;;;;;;;1.67;1.10;;;;;;;27.48;37.21;98706.63;5071967;28;20740;-66
2022/09/26 10:05:32;;;;;;;1.40;1.30;;;;;;;27.35;38.21;98709.50;5072277;28;20199;-65
2022/09/26 10:07:59;;;;;;;1.20;1.10;;;;;;;27.62;36.14;98703.78;5072489;28;20612;-64
2022/09/26 10:10:36;;;;;;;1.73;1.30;;;;;;;27.21;33.56;98687.94;5072248;28;20200;-65
2022/09/26 10:13:04;;;;;;;1.40;1.20;;;;;;;27.75;38.04;98685.94;5071867;28;20321;-64
2022/09/26 10:15:35;;;;;;;1.42;1.15;;;;;;;27.66;34.23;98679.41;5071993;28;20224;-65
2022/09/26 10:18:04;;;;;;;1.17;1.00;;;;;;;27.71;33.92;98684.78;5072166;28;20226;-64
2022/09/26 10:20:38;;;;;;;1.23;1.13;;;;;;;28.05;38.19;98684.16;5053780;28;20206;-65
2022/09/26 10:23:15;;;;;;;1.33;1.23;;;;;;;28.11;35.12;98678.75;5072111;28;20221;-65
2022/09/26 10:25:47;;;;;;;1.48;1.20;;;;;;;28.28;34.43;98685.91;5072131;28;20191;-65
2022/09/26 10:28:25;;;;;;;1.30;1.20;;;;;;;28.18;34.14;98682.03;5071939;28;20250;-64
2022/09/26 10:31:02;;;;;;;1.80;1.40;;;;;;;27.84;34.33;98690.84;5071801;28;20205;-64
2022/09/26 10:33:33;;;;;;;1.67;1.27;;;;;;;27.78;35.48;98679.44;5071574;28;20234;-64
2022/09/26 10:36:09;;;;;;;1.17;1.08;;;;;;;27.82;37.64;98685.03;5071655;28;20198;-64
2022/09/26 10:41:37;;;;;;;1.58;1.35;;;;;;;27.99;34.07;98670.13;5070510;28;20844;-64
2022/09/26 10:44:07;;;;;;;1.20;1.10;;;;;;;28.13;36.78;98665.38;5071621;28;20230;-65
2022/09/26 10:46:36;;;;;;;1.20;1.10;;;;;;;28.28;34.28;98659.63;5071381;28;20203;-64
2022/09/26 10:49:04;;;;;;;1.30;1.20;;;;;;;28.10;36.51;98658.78;5071815;28;20219;-65
2022/09/26 10:51:38;;;;;;;1.20;1.10;;;;;;;27.81;33.64;98652.72;5071413;28;20195;-64
2022/09/26 10:54:10;;;;;;;1.27;1.17;;;;;;;28.14;36.91;98646.75;5071110;28;20288;-65
2022/09/26 10:56:42;;;;;;;1.10;1.00;;;;;;;28.70;35.47;98646.13;5071270;28;20210;-65
2022/09/26 10:59:13;;;;;;;1.35;1.08;;;;;;;28.82;33.89;98650.25;5071122;28;20710;-65
2022/09/26 11:01:45;;;;;;;1.25;1.10;;;;;;;29.17;33.09;98653.69;5071066;28;20203;-65
2022/09/26 11:05:55;;;;;;;1.75;1.13;;;;;;;28.82;35.34;98647.63;5071504;28;20219;-65
2022/09/26 11:07:05;;;;;;;1.98;1.40;;;;;;;28.42;34.02;98642.50;5071143;28;20294;-65
2022/09/26 11:09:32;;;;;;;2.58;1.70;;;;;;;28.25;34.58;98641.69;5071054;28;20195;-65
2022/09/26 11:12:22;;;;;;;1.58;1.20;;;;;;;28.42;35.76;98647.75;5070975;28;20225;-65
2022/09/26 11:14:56;;;;;;;2.28;1.15;;;;;;;28.11;34.51;98641.97;5070968;28;20203;-65
2022/09/26 11:17:42;;;;;;;1.38;1.27;;;;;;;28.25;32.55;98631.97;5070841;28;20218;-65
2022/09/26 11:20:13;;;;;;;1.25;1.15;;;;;;;28.38;34.45;98630.84;5070790;28;20576;-65
2022/09/26 11:22:49;;;;;;;2.30;1.63;;;;;;;28.83;36.35;98628.19;5070553;28;20590;-65
2022/09/26 11:25:24;;;;;;;2.45;1.77;;;;;;;28.66;33.24;98617.66;5070618;28;20682;-65
2022/09/26 11:27:55;;;;;;;3.08;1.40;;;;;;;29.23;35.36;98615.84;5070519;28;20215;-65
2022/09/26 11:30:25;;;;;;;1.95;1.33;;;;;;;29.77;35.94;98626.53;5070761;28;20202;-65
2022/09/26 11:32:56;;;;;;;1.40;1.10;;;;;;;29.56;32.45;98617.56;5069755;28;20329;-65
2022/09/26 11:35:40;;;;;;;1.75;1.17;;;;;;;29.44;35.05;98622.97;5070295;28;20206;-65
2022/09/26 11:38:23;;;;;;;2.58;1.83;;;;;;;28.85;33.51;98617.41;5070386;28;20300;-65
2022/09/26 11:41:07;;;;;;;1.75;1.52;;;;;;;28.88;33.78;98611.66;5070278;28;20222;-65
2022/09/26 11:43:59;;;;;;;2.35;1.70;;;;;;;29.00;34.67;98611.56;5070319;28;20242;-65
2022/09/26 11:46:40;;;;;;;1.90;1.48;;;;;;;28.75;35.54;98604.09;5070188;28;20206;-65
2022/09/26 11:49:30;;;;;;;2.50;1.58;;;;;;;28.72;33.16;98589.59;5070206;28;20276;-65
2022/09/26 11:52:13;;;;;;;1.90;1.40;;;;;;;28.58;35.34;98591.75;5070136;28;20209;-64
2022/09/26 11:54:57;;;;;;;2.45;1.70;;;;;;;28.67;35.35;98592.94;5070390;28;20210;-65
2022/09/26 11:57:37;;;;;;;2.67;1.40;;;;;;;28.69;35.02;98600.59;5070004;28;20222;-65
2022/09/26 12:00:14;;;;;;;1.35;1.25;;;;;;;28.71;35.16;98601.16;5070522;28;20202;-65
2022/09/26 12:03:12;;;;;;;1.30;1.20;;;;;;;28.79;34.94;98594.69;5070139;28;20272;-65
2022/09/26 12:05:51;;;;;;;1.35;1.25;;;;;;;29.09;35.22;98587.25;5069893;28;20206;-65
2022/09/26 12:08:30;;;;;;;1.52;1.17;;;;;;;29.21;33.64;98581.06;5070041;28;20225;-65